.
WxDataArchive / Data Records for 2014-04-13
2014-04-12 April 2014 2014-04-14

Data Records for Sunday, 13 April 2014

Time	Temp	Chill	HIndex	Humid	Dewpt	 Wind 	HiWind	WindDir	Rain 	Barom
-----	----	-----	------	-----	-----	------	------	-------	-----	-----
00:00	63.1	63.1	63.1	65	51.1	0	1	112	0.00	29.791 
00:05	62.9	62.9	62.9	65	50.9	0	0	---	0.00	29.791 
00:10	62.6	62.6	62.6	66	51.1	0	0	---	0.00	29.791 
00:15	62.1	62.1	62.1	67	51.0	0	0	---	0.00	29.789 
00:20	61.5	61.5	61.5	69	51.2	0	0	---	0.00	29.789 
00:25	61.2	61.2	61.2	69	50.9	0	0	---	0.00	29.789 
00:30	60.7	60.7	60.7	70	50.9	0	0	---	0.00	29.785 
00:35	60.4	60.4	60.4	71	50.9	0	0	---	0.00	29.785 
00:40	60.1	60.1	60.1	72	51.0	0	0	---	0.00	29.785 
00:45	59.6	59.6	59.6	73	50.9	0	0	---	0.00	29.780 
00:50	59.3	59.3	59.3	74	51.0	0	0	---	0.00	29.780 
00:55	59.0	59.0	59.0	74	50.7	0	0	---	0.00	29.780 
01:00	58.7	58.7	58.7	74	50.4	0	0	---	0.00	29.780 
01:05	58.4	58.4	58.4	76	50.9	0	0	---	0.00	29.780 
01:10	58.3	58.3	58.3	77	51.1	0	0	---	0.00	29.780 
01:15	58.3	58.3	58.3	76	50.8	0	1	112	0.00	29.774 
01:20	58.3	58.3	58.3	77	51.1	0	0	---	0.00	29.774 
01:25	58.3	58.3	58.3	77	51.1	0	0	---	0.00	29.774 
01:30	58.1	58.1	58.1	77	50.9	0	0	---	0.00	29.774 
01:35	58.1	58.1	58.1	77	50.9	0	0	---	0.00	29.774 
01:40	57.8	57.8	57.8	77	50.6	0	0	---	0.00	29.774 
01:45	57.5	57.5	57.5	77	50.3	0	0	---	0.00	29.776 
01:50	57.2	57.2	57.2	78	50.4	0	0	---	0.00	29.776 
01:55	57.0	57.0	57.0	79	50.5	0	0	---	0.00	29.776 
02:00	56.7	56.7	56.7	79	50.3	0	0	---	0.00	29.777 
02:05	56.5	56.5	56.5	80	50.4	0	0	---	0.00	29.777 
02:10	56.3	56.3	56.3	80	50.2	0	0	---	0.00	29.777 
02:15	56.2	56.2	56.2	81	50.4	0	0	---	0.00	29.778 
02:20	56.0	56.0	56.0	81	50.3	0	0	---	0.00	29.778 
02:25	56.0	56.0	56.0	81	50.3	0	0	---	0.00	29.778 
02:30	55.9	55.9	55.9	81	50.2	0	0	---	0.00	29.784 
02:35	55.7	55.7	55.7	81	50.0	0	0	---	0.00	29.784 
02:40	55.4	55.4	55.4	81	49.7	0	0	---	0.00	29.784 
02:45	55.4	55.4	55.4	82	50.0	0	0	---	0.00	29.791 
02:50	55.3	55.3	55.3	83	50.2	0	0	---	0.00	29.791 
02:55	55.4	55.4	55.4	84	50.6	0	0	---	0.00	29.791 
03:00	55.4	55.4	55.4	84	50.6	0	0	---	0.00	29.785 
03:05	55.6	55.6	55.6	84	50.8	0	0	---	0.00	29.785 
03:10	55.6	55.6	55.6	84	50.8	0	0	---	0.00	29.785 
03:15	55.7	55.7	55.7	84	50.9	0	0	---	0.00	29.782 
03:20	55.9	55.9	55.9	83	50.8	0	0	---	0.00	29.782 
03:25	55.9	55.9	55.9	83	50.8	0	0	---	0.00	29.782 
03:30	55.7	55.7	55.7	83	50.6	0	0	---	0.00	29.783 
03:35	55.6	55.6	55.6	83	50.5	0	0	---	0.00	29.783 
03:40	55.4	55.4	55.4	83	50.3	0	0	---	0.00	29.783 
03:45	55.3	55.3	55.3	84	50.5	0	0	---	0.00	29.780 
03:50	55.1	55.1	55.1	84	50.4	0	0	---	0.00	29.780 
03:55	55.0	55.0	55.0	84	50.3	0	0	---	0.00	29.780 
04:00	55.0	55.0	55.0	84	50.3	0	0	---	0.00	29.775 
04:05	54.8	54.8	54.8	85	50.4	0	0	---	0.00	29.775 
04:10	54.8	54.8	54.8	85	50.4	0	0	---	0.00	29.775 
04:15	54.8	54.8	54.8	85	50.4	0	0	---	0.00	29.776 
04:20	54.7	54.7	54.7	85	50.3	0	0	---	0.00	29.776 
04:25	54.7	54.7	54.7	85	50.3	0	0	---	0.00	29.776 
04:30	54.7	54.7	54.7	85	50.3	0	0	---	0.00	29.774 
04:35	54.5	54.5	54.5	85	50.1	0	0	---	0.00	29.774 
04:40	54.7	54.7	54.7	85	50.3	0	0	---	0.00	29.774 
04:45	55.0	55.0	55.0	86	50.9	0	2	112	0.00	29.771 
04:50	55.6	55.6	55.6	84	50.8	0	1	112	0.00	29.771 
04:55	56.0	56.0	56.0	84	51.2	0	1	112	0.00	29.771 
05:00	56.6	56.6	56.6	83	51.5	0	1	112	0.00	29.767 
05:05	57.0	57.0	57.0	82	51.6	0	1	112	0.00	29.767 
05:10	57.3	57.3	57.3	82	51.9	0	2	112	0.00	29.767 
05:15	57.8	57.8	57.8	81	52.0	0	2	112	0.00	29.757 
05:20	58.4	58.4	58.4	80	52.3	0	2	112	0.00	29.757 
05:25	59.2	59.2	59.2	78	52.3	0	2	112	0.00	29.757 
05:30	59.8	59.8	59.8	77	52.6	0	2	112	0.00	29.745 
05:35	60.2	60.2	60.2	75	52.2	1	4	112	0.00	29.745 
05:40	60.5	60.5	60.5	75	52.5	0	3	112	0.00	29.745 
05:45	60.7	60.7	60.7	74	52.4	0	2	112	0.00	29.745 
05:50	61.0	61.0	61.0	74	52.6	0	2	112	0.00	29.745 
05:55	61.2	61.2	61.2	73	52.5	1	3	180	0.00	29.745 
06:00	61.3	61.3	61.3	73	52.6	0	2	292	0.00	29.744 
06:05	61.3	61.3	61.3	72	52.2	0	2	292	0.00	29.744 
06:10	61.3	61.3	61.3	72	52.2	0	2	292	0.00	29.744 
06:15	61.3	61.3	61.3	72	52.2	1	3	292	0.00	29.751 
06:20	61.3	61.3	61.3	72	52.2	0	2	0	0.00	29.751 
06:25	61.3	61.3	61.3	72	52.2	1	3	292	0.00	29.751 
06:30	61.2	61.2	61.2	72	52.1	0	2	248	0.00	29.752 
06:35	61.2	61.2	61.2	73	52.5	0	2	248	0.00	29.752 
06:40	61.2	61.2	61.2	73	52.5	1	3	248	0.00	29.752 
06:45	61.2	61.2	61.2	73	52.5	1	5	180	0.00	29.740 
06:50	61.0	61.0	61.0	73	52.3	0	1	315	0.00	29.740 
06:55	61.0	61.0	61.0	73	52.3	0	3	315	0.00	29.740 
07:00	60.9	60.9	60.9	73	52.2	0	3	270	0.00	29.740 
07:05	60.9	60.9	60.9	73	52.2	0	4	248	0.00	29.740 
07:10	61.0	61.0	61.0	73	52.3	0	5	248	0.00	29.740 
07:15	61.0	61.0	61.0	74	52.6	0	4	248	0.00	29.749 
07:20	61.0	61.0	61.0	74	52.6	0	3	248	0.00	29.749 
07:25	61.2	61.2	61.2	74	52.8	1	3	248	0.00	29.749 
07:30	61.3	61.3	61.3	73	52.6	1	4	248	0.00	29.751 
07:35	61.5	61.5	61.5	73	52.8	1	4	248	0.00	29.751 
07:40	61.8	61.8	61.8	73	53.0	1	4	248	0.00	29.751 
07:45	62.0	62.0	62.0	73	53.2	1	3	270	0.00	29.753 
07:50	62.1	62.1	62.1	73	53.3	1	4	270	0.00	29.753 
07:55	62.3	62.3	62.3	72	53.2	1	3	270	0.00	29.753 
08:00	62.4	62.4	62.4	72	53.2	1	5	270	0.00	29.754 
08:05	62.6	62.6	62.6	72	53.4	1	5	248	0.00	29.754 
08:10	62.7	62.7	62.7	72	53.5	1	4	248	0.00	29.754 
08:15	62.9	62.9	62.9	72	53.7	1	4	270	0.00	29.755 
08:20	63.1	63.1	63.1	72	53.9	1	4	248	0.00	29.755 
08:25	63.4	63.4	63.4	72	54.2	1	5	248	0.00	29.755 
08:30	63.9	63.9	63.9	71	54.3	2	5	248	0.00	29.752 
08:35	64.5	64.5	64.5	70	54.5	2	5	248	0.00	29.752 
08:40	64.8	64.8	64.8	69	54.4	2	10	248	0.00	29.752 
08:45	65.0	65.0	65.0	69	54.6	2	9	248	0.00	29.753 
08:50	65.2	65.2	65.2	69	54.8	1	4	248	0.00	29.753 
08:55	65.2	65.2	65.2	69	54.8	2	6	248	0.00	29.753 
09:00	65.3	65.3	65.3	69	54.9	2	8	248	0.00	29.758 
09:05	65.5	65.5	65.5	69	55.1	2	5	248	0.00	29.758 
09:10	66.0	66.0	66.0	68	55.1	2	6	248	0.00	29.758 
09:15	66.3	66.3	66.3	67	55.0	2	7	248	0.00	29.757 
09:20	66.8	66.8	66.8	67	55.5	3	8	248	0.00	29.757 
09:25	66.9	66.9	66.9	67	55.6	2	7	248	0.00	29.757 
09:30	66.9	66.9	66.9	67	55.6	2	5	248	0.00	29.766 
09:35	66.8	66.8	66.8	67	55.5	3	9	248	0.00	29.766 
09:40	66.8	66.8	66.8	67	55.5	2	6	248	0.00	29.766 
09:45	66.6	66.6	66.6	67	55.3	2	7	248	0.00	29.767 
09:50	66.8	66.8	66.8	67	55.5	2	9	248	0.00	29.767 
09:55	66.9	66.9	66.9	67	55.6	2	6	248	0.00	29.767 
10:00	67.3	67.3	67.3	66	55.5	2	7	248	0.00	29.764 
10:05	67.4	67.4	67.4	66	55.6	2	7	202	0.00	29.764 
10:10	67.6	67.6	67.6	65	55.4	2	6	248	0.00	29.764 
10:15	67.8	67.8	67.8	65	55.6	3	7	248	0.00	29.773 
10:20	67.8	67.8	67.8	65	55.6	3	6	248	0.00	29.773 
10:25	67.9	67.9	67.9	65	55.7	2	7	248	0.00	29.773 
10:30	68.3	68.3	68.3	64	55.6	2	8	248	0.00	29.776 
10:35	68.4	68.4	68.4	64	55.7	2	7	270	0.00	29.776 
10:40	68.6	68.6	68.6	64	55.9	2	7	248	0.00	29.776 
10:45	68.6	68.6	68.6	63	55.5	4	7	248	0.00	29.772 
10:50	68.9	68.9	68.9	63	55.8	2	7	248	0.00	29.772 
10:55	69.1	69.1	69.1	63	56.0	3	8	248	0.00	29.772 
11:00	69.4	69.4	69.4	63	56.2	4	11	248	0.00	29.773 
11:05	69.8	69.8	69.8	62	56.2	4	11	248	0.00	29.773 
11:10	70.1	70.1	70.1	62	56.5	4	11	270	0.00	29.773 
11:15	70.4	70.4	70.4	60	55.8	3	7	270	0.00	29.775 
11:20	70.4	70.4	70.4	61	56.3	2	7	270	0.00	29.775 
11:25	70.4	70.4	70.4	61	56.3	3	10	248	0.00	29.775 
11:30	70.8	70.8	70.8	61	56.7	2	6	248	0.00	29.772 
11:35	70.9	70.9	70.9	60	56.3	2	7	248	0.00	29.772 
11:40	71.1	71.1	71.1	60	56.5	2	15	248	0.00	29.772 
11:45	71.3	71.3	71.3	59	56.2	3	7	248	0.00	29.767 
11:50	71.6	71.6	71.6	60	57.0	3	7	248	0.00	29.767 
11:55	71.8	71.8	71.8	58	56.2	3	6	248	0.00	29.767 
12:00	72.1	72.1	72.1	58	56.5	2	6	270	0.00	29.759 
12:05	72.7	72.7	72.7	57	56.6	2	6	248	0.00	29.759 
12:10	72.7	72.7	72.7	56	56.1	3	11	248	0.00	29.759 
12:15	72.7	72.7	72.7	56	56.1	3	10	248	0.00	29.764 
12:20	72.7	72.7	72.7	56	56.1	2	6	248	0.00	29.764 
12:25	72.7	72.7	72.7	56	56.1	2	7	248	0.00	29.764 
12:30	72.3	72.3	72.3	56	55.7	4	12	248	0.00	29.771 
12:35	72.1	72.1	72.1	57	56.0	3	7	270	0.00	29.771 
12:40	72.3	72.3	72.3	56	55.7	2	6	248	0.00	29.771 
12:45	72.5	72.5	72.5	57	56.4	2	7	248	0.00	29.766 
12:50	72.7	72.7	72.7	56	56.1	2	8	248	0.00	29.766 
12:55	72.5	72.5	72.5	55	55.4	4	10	248	0.00	29.766 
13:00	72.3	72.3	72.3	55	55.2	4	12	248	0.00	29.774 
13:05	72.3	72.3	72.3	56	55.7	3	10	248	0.00	29.774 
13:10	72.1	72.1	72.1	56	55.5	5	12	248	0.00	29.774 
13:15	72.0	72.0	72.0	56	55.4	3	10	248	0.00	29.780 
13:20	72.1	72.1	72.1	56	55.5	2	7	270	0.00	29.780 
13:25	72.3	72.3	72.3	56	55.7	2	7	248	0.00	29.780 
13:30	72.1	72.1	72.1	55	55.0	3	9	248	0.00	29.781 
13:35	72.3	72.3	72.3	55	55.2	3	10	248	0.00	29.781 
13:40	73.0	73.0	73.0	54	55.4	3	10	248	0.00	29.781 
13:45	73.2	73.2	73.2	53	55.0	3	7	248	0.00	29.768 
13:50	73.5	73.5	73.5	52	54.8	2	6	248	0.00	29.768 
13:55	73.7	73.7	73.7	53	55.5	2	7	248	0.00	29.768 
14:00	73.2	73.2	73.2	52	54.5	4	11	248	0.00	29.772 
14:05	72.8	72.8	72.8	53	54.7	3	10	248	0.00	29.772 
14:10	72.7	72.7	72.7	54	55.1	1	5	270	0.00	29.772 
14:15	72.5	72.5	72.5	54	54.9	3	7	270	0.00	29.775 
14:20	72.1	72.1	72.1	54	54.5	2	5	270	0.00	29.775 
14:25	72.0	72.0	72.0	55	54.9	3	5	270	0.00	29.775 
14:30	72.0	72.0	72.0	55	54.9	2	7	248	0.00	29.777 
14:35	72.3	72.3	72.3	55	55.2	2	5	248	0.00	29.777 
14:40	72.5	72.5	72.5	54	54.9	2	6	248	0.00	29.777 
14:45	72.8	72.8	72.8	53	54.7	1	5	248	0.00	29.772 
14:50	72.8	72.8	72.8	53	54.7	1	4	248	0.00	29.772 
14:55	72.8	72.8	72.8	51	53.6	3	9	248	0.00	29.772 
15:00	72.8	72.8	72.8	50	53.1	3	7	248	0.00	29.760 
15:05	72.8	72.8	72.8	47	51.4	3	7	270	0.00	29.760 
15:10	72.8	72.8	72.8	47	51.4	3	9	270	0.00	29.760 
15:15	72.7	72.7	72.7	49	52.4	2	8	270	0.00	29.763 
15:20	72.7	72.7	72.7	49	52.4	2	9	225	0.00	29.763 
15:25	72.8	72.8	72.8	50	53.1	2	7	248	0.00	29.763 
15:30	73.0	73.0	73.0	49	52.7	3	7	248	0.00	29.757 
15:35	73.2	73.2	73.2	48	52.3	4	9	248	0.00	29.757 
15:40	73.3	73.3	73.3	50	53.5	2	4	248	0.00	29.757 
15:45	73.7	73.7	73.7	50	53.9	2	5	270	0.00	29.748 
15:50	74.0	74.0	74.0	49	53.6	2	7	248	0.00	29.748 
15:55	74.2	74.2	74.2	50	54.3	2	6	248	0.00	29.748 
16:00	74.2	74.2	74.2	48	53.2	3	10	248	0.00	29.740 
16:05	74.0	74.0	74.0	48	53.0	3	7	248	0.00	29.740 
16:10	74.0	74.0	74.0	49	53.6	1	3	270	0.00	29.740 
16:15	74.6	74.6	74.6	48	53.6	2	5	248	0.00	29.730 
16:20	74.6	74.6	74.6	47	53.0	2	6	248	0.00	29.730 
16:25	74.7	74.7	74.7	49	54.3	2	6	248	0.00	29.730 
16:30	75.1	75.1	77.7	49	54.6	1	4	270	0.00	29.727 
16:35	75.3	75.3	77.7	47	53.7	2	5	248	0.00	29.727 
16:40	75.1	75.1	77.7	49	54.6	2	5	270	0.00	29.727 
16:45	75.1	75.1	77.7	48	54.1	1	3	270	0.00	29.719 
16:50	74.9	74.9	74.9	49	54.4	2	5	248	0.00	29.719 
16:55	74.6	74.6	74.6	50	54.7	1	3	338	0.00	29.719 
17:00	74.6	74.6	74.6	50	54.7	1	5	248	0.00	29.721 
17:05	74.6	74.6	74.6	49	54.2	2	5	270	0.00	29.721 
17:10	74.6	74.6	74.6	50	54.7	2	6	270	0.00	29.721 
17:15	74.6	74.6	74.6	50	54.7	2	5	248	0.00	29.711 
17:20	75.1	75.1	77.7	49	54.6	2	6	270	0.00	29.711 
17:25	75.4	75.4	77.8	47	53.7	2	12	248	0.00	29.711 
17:30	75.4	75.4	77.8	47	53.7	2	6	248	0.00	29.707 
17:35	75.4	75.4	77.8	46	53.2	2	7	248	0.00	29.707 
17:40	75.3	75.3	77.7	47	53.7	2	6	248	0.00	29.707 
17:45	75.3	75.3	77.7	46	53.1	2	5	270	0.00	29.710 
17:50	75.6	75.6	77.8	46	53.3	1	5	270	0.00	29.710 
17:55	75.8	75.8	77.9	45	52.9	1	5	248	0.00	29.710 
18:00	75.6	75.6	77.8	44	52.1	2	9	248	0.00	29.704 
18:05	75.4	75.4	77.7	45	52.6	1	3	248	0.00	29.704 
18:10	75.3	75.3	77.7	46	53.1	2	5	248	0.00	29.704 
18:15	74.9	74.9	74.9	47	53.3	1	4	248	0.00	29.705 
18:20	74.6	74.6	74.6	46	52.4	1	4	248	0.00	29.705 
18:25	74.4	74.4	74.4	47	52.8	1	4	90	0.00	29.705 
18:30	74.2	74.2	74.2	47	52.7	0	2	248	0.00	29.696 
18:35	74.0	74.0	74.0	48	53.0	0	3	248	0.00	29.696 
18:40	73.9	73.9	73.9	48	53.0	1	4	112	0.00	29.696 
18:45	73.7	73.7	73.7	48	52.8	1	3	90	0.00	29.694 
18:50	73.7	73.7	73.7	48	52.8	0	3	292	0.00	29.694 
18:55	73.5	73.5	73.5	47	52.0	1	4	248	0.00	29.694 
19:00	73.5	73.5	73.5	47	52.0	0	2	248	0.00	29.693 
19:05	73.3	73.3	73.3	47	51.8	1	5	248	0.00	29.693 
19:10	73.3	73.3	73.3	48	52.4	0	3	248	0.00	29.693 
19:15	73.2	73.2	73.2	48	52.3	0	1	315	0.00	29.681 
19:20	72.8	72.8	72.8	49	52.5	0	2	315	0.00	29.681 
19:25	72.7	72.7	72.7	49	52.4	0	2	315	0.00	29.681 
19:30	72.5	72.5	72.5	50	52.8	0	1	315	0.00	29.671 
19:35	72.3	72.3	72.3	50	52.6	0	1	315	0.00	29.671 
19:40	72.1	72.1	72.1	50	52.4	0	1	315	0.00	29.671 
19:45	72.0	72.0	72.0	51	52.9	0	1	315	0.00	29.661 
19:50	71.8	71.8	71.8	50	52.1	0	1	315	0.00	29.661 
19:55	71.6	71.6	71.6	50	52.0	0	1	315	0.00	29.661 
20:00	71.6	71.6	71.6	50	52.0	0	1	315	0.00	29.653 
20:05	71.6	71.6	71.6	51	52.5	0	1	315	0.00	29.653 
20:10	71.5	71.5	71.5	50	51.9	0	1	315	0.00	29.653 
20:15	71.5	71.5	71.5	51	52.4	0	1	315	0.00	29.649 
20:20	71.3	71.3	71.3	51	52.2	0	1	315	0.00	29.649 
20:25	71.1	71.1	71.1	52	52.6	0	1	315	0.00	29.649 
20:30	70.9	70.9	70.9	52	52.4	0	2	315	0.00	29.645 
20:35	70.8	70.8	70.8	52	52.3	0	2	315	0.00	29.645 
20:40	70.8	70.8	70.8	53	52.8	0	2	315	0.00	29.645 
20:45	70.8	70.8	70.8	53	52.8	1	4	112	0.00	29.642 
20:50	70.8	70.8	70.8	53	52.8	1	3	112	0.00	29.642 
20:55	70.8	70.8	70.8	53	52.8	1	3	112	0.00	29.642 
21:00	70.8	70.8	70.8	54	53.3	1	3	112	0.00	29.639 
21:05	70.8	70.8	70.8	54	53.3	1	3	112	0.00	29.639 
21:10	70.8	70.8	70.8	54	53.3	1	4	112	0.00	29.639 
21:15	70.8	70.8	70.8	54	53.3	1	4	112	0.00	29.628 
21:20	70.6	70.6	70.6	54	53.1	1	2	112	0.00	29.628 
21:25	70.4	70.4	70.4	55	53.4	0	3	112	0.00	29.628 
21:30	70.3	70.3	70.3	55	53.4	1	4	112	0.00	29.640 
21:35	70.1	70.1	70.1	56	53.7	0	4	112	0.00	29.640 
21:40	69.9	69.9	69.9	56	53.5	0	1	112	0.00	29.640 
21:45	69.8	69.8	69.8	57	53.9	0	2	112	0.00	29.639 
21:50	69.6	69.6	69.6	57	53.7	0	2	112	0.00	29.639 
21:55	69.6	69.6	69.6	57	53.7	0	2	112	0.00	29.639 
22:00	69.6	69.6	69.6	57	53.7	0	2	112	0.00	29.637 
22:05	69.6	69.6	69.6	56	53.2	1	4	112	0.00	29.637 
22:10	69.8	69.8	69.8	56	53.4	1	5	112	0.00	29.637 
22:15	69.9	69.9	69.9	56	53.5	1	3	45	0.00	29.636 
22:20	69.9	69.9	69.9	56	53.5	1	4	22	0.00	29.636 
22:25	70.1	70.1	70.1	56	53.7	0	2	22	0.00	29.636 
22:30	70.1	70.1	70.1	56	53.7	0	4	22	0.00	29.641 
22:35	70.1	70.1	70.1	55	53.2	1	4	248	0.00	29.641 
22:40	70.1	70.1	70.1	55	53.2	1	2	248	0.00	29.641 
22:45	70.1	70.1	70.1	56	53.7	1	2	248	0.00	29.630 
22:50	69.9	69.9	69.9	56	53.5	0	2	248	0.00	29.630 
22:55	69.6	69.6	69.6	57	53.7	0	1	248	0.00	29.630 
23:00	69.3	69.3	69.3	58	53.9	0	1	248	0.00	29.626 
23:05	68.8	68.8	68.8	59	53.9	0	1	248	0.00	29.626 
23:10	68.6	68.6	68.6	59	53.7	0	2	248	0.00	29.626 
23:15	68.4	68.4	68.4	59	53.5	1	3	90	0.00	29.608 
23:20	68.4	68.4	68.4	59	53.5	1	3	90	0.00	29.608 
23:25	68.4	68.4	68.4	59	53.5	0	1	90	0.00	29.608 
23:30	68.3	68.3	68.3	60	53.9	0	1	90	0.00	29.599 
23:35	67.9	67.9	67.9	60	53.5	0	1	90	0.00	29.599 
23:40	67.8	67.8	67.8	61	53.9	0	3	90	0.00	29.599 
23:45	67.6	67.6	67.6	61	53.7	1	2	90	0.00	29.593 
23:50	67.6	67.6	67.6	60	53.2	1	4	90	0.00	29.593 
23:55	67.8	67.8	67.8	60	53.4	1	3	90	0.00	29.593 

CoCoRaHS
IN-AL-39
A2 Web Hosting
Creative Commons License
GoDaddy
search engine by freefind advanced

loaded 2018-11-15 14:41:01 • last modified 2010-11-18 10:43:29
Privacy PolicyDisclaimer
• wx.awcolley.com is powered by PmWiki v.2002016 •
• all content (unless otherwise noted) © 2018 A W Colley